createdAt,value
2018-10-18T00:00:47.298Z,99.9
2018-10-18T00:01:47.219Z,99.9
2018-10-18T00:02:47.147Z,99.9
2018-10-18T00:03:47.072Z,99.9
2018-10-18T00:04:47.022Z,99.9
2018-10-18T00:05:46.966Z,99.9
2018-10-18T00:06:46.877Z,99.9
2018-10-18T00:17:45.132Z,99.4
2018-10-18T00:18:45.068Z,99.6
2018-10-18T00:19:44.972Z,99.6
2018-10-18T00:20:44.883Z,99.8
2018-10-18T00:21:44.809Z,99.9
2018-10-18T00:22:44.742Z,99.9
2018-10-18T00:23:44.647Z,99.9
2018-10-18T00:24:44.557Z,99.9
2018-10-18T00:25:44.481Z,99.9
2018-10-18T00:26:44.382Z,99.9
2018-10-18T00:27:44.761Z,99.9
2018-10-18T00:28:44.696Z,99.9
2018-10-18T00:29:44.655Z,99.9
2018-10-18T00:30:44.587Z,99.9
2018-10-18T00:31:44.508Z,99.9
2018-10-18T00:32:44.434Z,99.9
2018-10-18T00:33:44.352Z,99.9
2018-10-18T00:34:44.265Z,99.9
2018-10-18T00:35:44.170Z,99.9
2018-10-18T00:36:44.093Z,99.9
2018-10-18T00:37:44.492Z,99.9
2018-10-18T00:38:44.406Z,99.9
2018-10-18T00:39:44.328Z,99.9
2018-10-18T00:40:44.242Z,99.9
2018-10-18T00:41:44.168Z,99.9
2018-10-18T00:42:44.097Z,99.9
2018-10-18T00:43:44.008Z,99.9
2018-10-18T00:44:43.936Z,99.9
2018-10-18T00:45:43.862Z,99.9
2018-10-18T00:46:43.765Z,99.9
2018-10-18T00:47:44.104Z,99.9
2018-10-18T00:48:44.036Z,99.9
2018-10-18T00:49:43.944Z,99.9
2018-10-18T00:50:43.859Z,99.9
2018-10-18T00:51:43.785Z,99.9
2018-10-18T00:52:43.715Z,99.9
2018-10-18T00:53:43.647Z,99.9
2018-10-18T00:54:43.574Z,99.9
2018-10-18T00:55:43.495Z,99.9
2018-10-18T00:56:43.443Z,99.9
2018-10-18T00:57:43.803Z,99.9
2018-10-18T00:58:43.709Z,99.9
2018-10-18T00:59:43.634Z,99.9
2018-10-18T01:00:43.561Z,99.9
2018-10-18T01:01:43.471Z,99.9
2018-10-18T01:02:43.402Z,99.9
2018-10-18T01:03:43.360Z,99.9
2018-10-18T01:04:43.280Z,99.9
2018-10-18T01:05:43.199Z,99.9
2018-10-18T01:06:43.132Z,99.9
2018-10-18T01:07:43.544Z,99.9
2018-10-18T01:08:43.473Z,99.9
2018-10-18T01:09:43.387Z,99.9
2018-10-18T01:10:43.313Z,99.9
2018-10-18T01:11:43.249Z,99.9
2018-10-18T01:12:43.934Z,99.9
2018-10-18T01:13:44.261Z,99.9
2018-10-18T01:14:44.180Z,99.9
2018-10-18T01:15:44.124Z,99.9
2018-10-18T01:16:44.044Z,99.9
2018-10-18T01:17:44.413Z,99.9
2018-10-18T01:18:44.332Z,99.9
2018-10-18T01:19:44.241Z,99.9
2018-10-18T01:20:44.200Z,99.9
2018-10-18T01:21:44.114Z,99.9
2018-10-18T01:22:44.029Z,99.9
2018-10-18T01:23:43.962Z,99.9
2018-10-18T01:24:43.864Z,99.9
2018-10-18T01:25:43.807Z,99.9
2018-10-18T01:26:43.749Z,99.9
2018-10-18T01:27:44.121Z,99.9
2018-10-18T01:28:44.029Z,99.9
2018-10-18T01:29:43.952Z,99.9
2018-10-18T01:30:43.868Z,99.9
2018-10-18T01:31:43.796Z,99.9
2018-10-18T01:32:43.708Z,99.9
2018-10-18T01:33:43.625Z,99.9
2018-10-18T01:34:43.566Z,99.9
2018-10-18T01:35:43.482Z,99.9
2018-10-18T01:36:43.423Z,99.9
2018-10-18T01:37:43.785Z,99.9
2018-10-18T01:38:43.710Z,99.9
2018-10-18T01:39:43.623Z,99.9
2018-10-18T01:40:43.526Z,99.9
2018-10-18T01:41:43.428Z,99.9
2018-10-18T01:42:43.370Z,99.9
2018-10-18T01:43:43.288Z,99.9
2018-10-18T01:44:43.239Z,99.9
2018-10-18T01:45:43.158Z,99.9
2018-10-18T01:46:43.053Z,99.9
2018-10-18T01:47:43.452Z,99.9
2018-10-18T01:48:43.373Z,99.9
2018-10-18T01:49:43.272Z,99.9
2018-10-18T01:50:43.181Z,99.9
2018-10-18T01:51:43.124Z,99.9
2018-10-18T01:52:43.041Z,99.9
2018-10-18T01:53:43.001Z,99.9
2018-10-18T01:54:42.915Z,99.9
2018-10-18T01:55:42.838Z,99.9
2018-10-18T01:56:42.743Z,99.9
2018-10-18T01:57:43.134Z,99.9
2018-10-18T01:58:43.064Z,99.9
2018-10-18T01:59:42.969Z,99.9
2018-10-18T02:00:42.879Z,99.9
2018-10-18T02:01:42.788Z,99.9
2018-10-18T02:02:42.718Z,99.9
2018-10-18T02:03:42.674Z,99.9
2018-10-18T02:04:42.595Z,99.9
2018-10-18T02:05:42.497Z,99.9
2018-10-18T02:06:42.426Z,99.9
2018-10-18T02:17:42.500Z,99.9
2018-10-18T02:18:42.423Z,99.9
2018-10-18T02:19:42.346Z,99.9
2018-10-18T02:20:42.246Z,99.9
2018-10-18T02:21:42.154Z,99.9
2018-10-18T02:22:42.074Z,99.9
2018-10-18T02:23:41.999Z,99.9
2018-10-18T02:24:41.931Z,99.9
2018-10-18T02:25:41.828Z,99.9
2018-10-18T02:26:41.734Z,99.9
2018-10-18T02:47:37.972Z,99.9
2018-10-18T02:48:37.896Z,99.9
2018-10-18T02:49:37.840Z,99.9
2018-10-18T02:50:37.769Z,99.9
2018-10-18T02:51:37.705Z,99.9
2018-10-18T02:52:37.635Z,99.9
2018-10-18T02:53:37.549Z,99.9
2018-10-18T02:54:37.459Z,99.9
2018-10-18T02:55:37.367Z,99.9
2018-10-18T02:56:37.286Z,99.9
2018-10-18T03:07:35.768Z,99.9
2018-10-18T03:08:35.872Z,99.9
2018-10-18T03:09:35.768Z,99.9
2018-10-18T03:10:35.690Z,99.9
2018-10-18T03:11:35.597Z,99.9
2018-10-18T03:12:35.513Z,99.9
2018-10-18T03:13:35.509Z,99.9
2018-10-18T03:14:35.489Z,99.9
2018-10-18T03:15:35.417Z,99.9
2018-10-18T03:16:35.343Z,99.9
2018-10-18T03:17:35.688Z,99.9
2018-10-18T03:18:35.632Z,99.9
2018-10-18T03:19:35.751Z,99.9
2018-10-18T03:20:35.666Z,99.9
2018-10-18T03:21:35.602Z,99.9
2018-10-18T03:22:35.523Z,99.9
2018-10-18T03:23:35.431Z,99.9
2018-10-18T03:24:35.363Z,99.9
2018-10-18T03:25:35.291Z,99.9
2018-10-18T03:26:35.210Z,99.9
2018-10-18T03:37:33.589Z,99.9
2018-10-18T03:38:33.508Z,99.9
2018-10-18T03:39:33.426Z,99.9
2018-10-18T03:40:33.377Z,99.9
2018-10-18T03:41:33.915Z,99.9
2018-10-18T03:42:34.237Z,99.9
2018-10-18T03:43:34.155Z,99.9
2018-10-18T03:44:34.092Z,99.9
2018-10-18T03:45:34.006Z,99.9
2018-10-18T03:46:33.939Z,99.9
2018-10-18T03:47:34.369Z,99.9
2018-10-18T03:48:34.279Z,99.9
2018-10-18T03:49:34.186Z,99.9
2018-10-18T03:50:34.089Z,99.9
2018-10-18T03:51:34.020Z,99.9
2018-10-18T03:52:33.921Z,99.9
2018-10-18T03:53:33.832Z,99.9
2018-10-18T03:54:33.791Z,99.9
2018-10-18T03:55:33.719Z,99.9
2018-10-18T03:56:33.646Z,99.9
2018-10-18T03:57:34.011Z,99.9
2018-10-18T03:58:33.922Z,99.9
2018-10-18T03:59:34.025Z,99.9
2018-10-18T04:00:34.279Z,99.9
2018-10-18T04:01:34.244Z,99.9
2018-10-18T04:02:34.153Z,99.9
2018-10-18T04:03:34.058Z,99.9
2018-10-18T04:04:33.967Z,99.9
2018-10-18T04:05:33.878Z,99.9
2018-10-18T04:06:33.797Z,99.9
2018-10-18T04:07:34.167Z,99.9
2018-10-18T04:08:34.127Z,99.9
2018-10-18T04:09:34.058Z,99.9
2018-10-18T04:10:33.962Z,99.9
2018-10-18T04:11:33.865Z,99.9
2018-10-18T04:12:33.953Z,99.9
2018-10-18T04:13:34.010Z,99.9
2018-10-18T04:14:33.930Z,99.9
2018-10-18T04:15:33.895Z,99.9
2018-10-18T04:16:33.828Z,99.9
2018-10-18T04:17:34.234Z,99.9
2018-10-18T04:18:34.768Z,99.9
2018-10-18T04:19:35.167Z,99.9
2018-10-18T04:20:35.106Z,99.9
2018-10-18T04:21:35.046Z,99.9
2018-10-18T04:22:35.003Z,99.9
2018-10-18T04:23:34.951Z,99.9
2018-10-18T04:24:34.879Z,99.9
2018-10-18T04:25:35.319Z,99.9
2018-10-18T04:26:35.838Z,99.9
2018-10-18T04:27:36.254Z,99.9
2018-10-18T04:28:36.353Z,99.9
2018-10-18T04:29:36.272Z,99.9
2018-10-18T04:30:36.182Z,99.9
2018-10-18T04:31:36.130Z,99.9
2018-10-18T04:32:36.063Z,99.9
2018-10-18T04:33:35.977Z,99.9
2018-10-18T04:34:35.903Z,99.9
2018-10-18T04:35:35.834Z,99.9
2018-10-18T04:36:35.805Z,99.9
2018-10-18T04:37:36.960Z,99.9
2018-10-18T04:38:37.368Z,99.9
2018-10-18T04:39:37.294Z,99.9
2018-10-18T04:40:37.199Z,99.9
2018-10-18T04:41:37.185Z,99.9
2018-10-18T04:42:37.109Z,99.9
2018-10-18T04:43:37.031Z,99.9
2018-10-18T04:44:36.955Z,99.9
2018-10-18T04:45:36.897Z,99.9
2018-10-18T04:46:36.807Z,99.9
2018-10-18T04:47:38.054Z,99.9
2018-10-18T04:48:38.861Z,99.9
2018-10-18T04:49:38.895Z,99.9
2018-10-18T04:50:38.809Z,99.9
2018-10-18T04:51:38.738Z,99.9
2018-10-18T04:52:38.662Z,99.9
2018-10-18T04:53:38.603Z,99.9
2018-10-18T04:54:38.530Z,99.9
2018-10-18T04:55:38.461Z,99.9
2018-10-18T04:56:38.556Z,99.9
2018-10-18T04:57:39.025Z,99.9
2018-10-18T04:58:38.949Z,99.9
2018-10-18T04:59:38.894Z,99.9
2018-10-18T05:00:38.814Z,99.9
2018-10-18T05:01:38.732Z,99.9
2018-10-18T05:02:39.128Z,99.9
2018-10-18T05:03:39.409Z,99.9
2018-10-18T05:04:39.321Z,99.9
2018-10-18T05:05:39.249Z,99.9
2018-10-18T05:06:39.168Z,99.9
2018-10-18T05:07:39.985Z,99.9
2018-10-18T05:08:39.900Z,99.9
2018-10-18T05:09:39.824Z,99.9
2018-10-18T05:10:39.753Z,99.9
2018-10-18T05:11:39.674Z,99.9
2018-10-18T05:12:40.094Z,99.9
2018-10-18T05:13:40.395Z,99.9
2018-10-18T05:14:40.299Z,99.9
2018-10-18T05:15:40.242Z,99.9
2018-10-18T05:16:40.144Z,99.9
2018-10-18T05:17:40.494Z,99.9
2018-10-18T05:18:40.402Z,99.9
2018-10-18T05:19:40.325Z,99.9
2018-10-18T05:20:40.235Z,99.9
2018-10-18T05:21:40.162Z,99.9
2018-10-18T05:22:40.061Z,99.9
2018-10-18T05:23:40.198Z,99.9
2018-10-18T05:24:40.272Z,99.9
2018-10-18T05:25:40.762Z,99.9
2018-10-18T05:26:41.117Z,99.9
2018-10-18T05:27:41.460Z,99.9
2018-10-18T05:28:41.371Z,99.9
2018-10-18T05:29:41.300Z,99.9
2018-10-18T05:30:41.232Z,99.9
2018-10-18T05:31:41.805Z,99.9
2018-10-18T05:32:42.110Z,99.9
2018-10-18T05:33:42.017Z,99.9
2018-10-18T05:34:41.929Z,99.9
2018-10-18T05:35:41.863Z,99.9
2018-10-18T05:36:41.779Z,99.9
2018-10-18T05:37:43.213Z,99.9
2018-10-18T05:38:43.523Z,99.9
2018-10-18T05:39:43.461Z,99.9
2018-10-18T05:40:43.372Z,99.9
2018-10-18T05:41:43.295Z,99.9
2018-10-18T05:42:43.225Z,99.9
2018-10-18T05:43:43.127Z,99.9
2018-10-18T05:44:43.049Z,99.9
2018-10-18T05:45:42.982Z,99.9
2018-10-18T05:46:43.435Z,99.9
2018-10-18T05:47:44.780Z,99.9
2018-10-18T05:48:44.686Z,99.9
2018-10-18T05:49:44.610Z,99.9
2018-10-18T05:50:44.525Z,99.9
2018-10-18T05:51:44.442Z,99.9
2018-10-18T05:52:44.362Z,99.9
2018-10-18T05:53:45.294Z,99.9
2018-10-18T05:54:45.601Z,99.9
2018-10-18T05:55:45.530Z,99.9
2018-10-18T05:56:45.453Z,99.9
2018-10-18T05:57:45.850Z,99.9
2018-10-18T05:58:45.760Z,99.9
2018-10-18T05:59:45.673Z,99.9
2018-10-18T06:00:45.628Z,99.9
2018-10-18T06:01:45.539Z,99.9
2018-10-18T06:02:45.453Z,99.9
2018-10-18T06:03:45.385Z,99.9
2018-10-18T06:04:45.284Z,99.9
2018-10-18T06:05:45.194Z,99.9
2018-10-18T06:06:45.101Z,99.9
2018-10-18T06:07:46.318Z,99.9
2018-10-18T06:08:46.249Z,99.9
2018-10-18T06:09:46.363Z,99.9
2018-10-18T06:10:46.468Z,99.9
2018-10-18T06:11:46.373Z,99.9
2018-10-18T06:12:46.291Z,99.9
2018-10-18T06:13:46.235Z,99.9
2018-10-18T06:14:46.179Z,99.9
2018-10-18T06:15:46.095Z,99.9
2018-10-18T06:16:46.004Z,99.9
2018-10-18T06:17:46.393Z,99.9
2018-10-18T06:18:46.417Z,99.9
2018-10-18T06:19:46.324Z,99.9
2018-10-18T06:20:46.236Z,99.9
2018-10-18T06:21:46.166Z,99.9
2018-10-18T06:22:46.490Z,99.9
2018-10-18T06:23:46.718Z,99.9
2018-10-18T06:24:46.636Z,99.9
2018-10-18T06:25:46.547Z,99.9
2018-10-18T06:26:46.464Z,99.9
2018-10-18T06:37:45.616Z,99.9
2018-10-18T06:38:45.546Z,99.9
2018-10-18T06:39:45.454Z,99.9
2018-10-18T06:40:45.395Z,99.9
2018-10-18T06:41:45.317Z,99.9
2018-10-18T06:42:45.240Z,99.9
2018-10-18T06:43:45.149Z,99.9
2018-10-18T06:44:45.073Z,99.9
2018-10-18T06:45:45.031Z,99.9
2018-10-18T06:46:45.201Z,99.9
2018-10-18T06:47:47.199Z,99.9
2018-10-18T06:48:47.772Z,99.9
2018-10-18T06:49:47.779Z,99.9
2018-10-18T06:50:47.715Z,99.9
2018-10-18T06:51:47.621Z,99.9
2018-10-18T06:52:47.542Z,99.9
2018-10-18T06:53:47.469Z,99.9
2018-10-18T06:54:47.406Z,99.9
2018-10-18T06:55:47.334Z,99.9
2018-10-18T06:56:47.243Z,99.9
2018-10-18T06:57:47.603Z,99.9
2018-10-18T06:58:47.506Z,99.9
2018-10-18T06:59:47.845Z,99.9
2018-10-18T07:00:48.080Z,99.9
2018-10-18T07:01:47.994Z,99.9
2018-10-18T07:02:47.889Z,99.9
2018-10-18T07:03:47.806Z,99.9
2018-10-18T07:04:47.729Z,99.9
2018-10-18T07:05:47.657Z,99.9
2018-10-18T07:06:47.587Z,99.9
2018-10-18T07:07:47.924Z,99.9
2018-10-18T07:08:47.964Z,99.9
2018-10-18T07:09:48.018Z,99.9
2018-10-18T07:10:48.257Z,99.9
2018-10-18T07:11:48.429Z,99.9
2018-10-18T07:12:48.338Z,99.9
2018-10-18T07:13:48.266Z,99.9
2018-10-18T07:14:48.159Z,99.9
2018-10-18T07:15:48.071Z,99.9
2018-10-18T07:16:48.008Z,99.9
2018-10-18T07:17:49.114Z,99.9
2018-10-18T07:18:49.462Z,99.9
2018-10-18T07:19:49.384Z,99.9
2018-10-18T07:20:49.287Z,99.9
2018-10-18T07:21:49.211Z,99.9
2018-10-18T07:22:49.146Z,99.9
2018-10-18T07:23:49.059Z,99.9
2018-10-18T07:24:48.964Z,99.9
2018-10-18T07:25:48.881Z,99.9
2018-10-18T07:26:48.802Z,99.9
2018-10-18T07:37:47.203Z,99.9
2018-10-18T07:38:47.111Z,99.9
2018-10-18T07:39:47.012Z,99.9
2018-10-18T07:40:46.965Z,99.9
2018-10-18T07:41:46.876Z,99.9
2018-10-18T07:42:46.812Z,99.9
2018-10-18T07:43:46.729Z,99.9
2018-10-18T07:44:46.641Z,99.9
2018-10-18T07:45:46.553Z,99.9
2018-10-18T07:46:46.905Z,99.9
2018-10-18T07:47:47.577Z,99.9
2018-10-18T07:48:47.494Z,99.9
2018-10-18T07:49:47.406Z,99.9
2018-10-18T07:50:47.312Z,99.9
2018-10-18T07:51:47.223Z,99.9
2018-10-18T07:52:47.174Z,99.9
2018-10-18T07:53:47.148Z,99.9
2018-10-18T07:54:47.049Z,99.9
2018-10-18T07:55:46.987Z,99.9
2018-10-18T07:56:46.901Z,99.9
2018-10-18T07:57:47.255Z,99.9
2018-10-18T07:58:47.191Z,99.9
2018-10-18T07:59:47.317Z,99.9
2018-10-18T08:00:48.347Z,99.9
2018-10-18T08:01:48.884Z,99.9
2018-10-18T08:02:48.808Z,99.9
2018-10-18T08:03:48.743Z,99.9
2018-10-18T08:04:48.714Z,99.9
2018-10-18T08:05:48.629Z,99.9
2018-10-18T08:06:48.544Z,99.9
2018-10-18T08:07:48.892Z,99.9
2018-10-18T08:08:48.806Z,99.9
2018-10-18T08:09:48.868Z,99.9
2018-10-18T08:10:49.168Z,99.9
2018-10-18T08:11:49.139Z,99.9
2018-10-18T08:12:49.067Z,99.9
2018-10-18T08:13:48.975Z,99.9
2018-10-18T08:14:48.928Z,99.9
2018-10-18T08:15:48.894Z,99.9
2018-10-18T08:16:49.241Z,99.9
2018-10-18T08:17:50.433Z,99.9
2018-10-18T08:18:50.360Z,99.9
2018-10-18T08:19:50.286Z,99.5
2018-10-18T08:20:50.185Z,99.7
2018-10-18T08:21:50.102Z,99.7
2018-10-18T08:22:50.014Z,99.8
2018-10-18T08:23:49.925Z,99.8
2018-10-18T08:24:49.855Z,99.7
2018-10-18T08:25:49.822Z,99.6
2018-10-18T08:26:49.741Z,99.6
2018-10-18T08:27:50.102Z,99.3
2018-10-18T08:28:50.021Z,99.5
2018-10-18T08:29:49.944Z,99.5
2018-10-18T08:30:49.860Z,99.7
2018-10-18T08:31:50.399Z,99.4
2018-10-18T08:32:50.762Z,99.5
2018-10-18T08:33:50.695Z,99.7
2018-10-18T08:34:50.599Z,99.7
2018-10-18T08:35:50.591Z,99.6
2018-10-18T08:36:50.493Z,99.6
2018-10-18T08:47:50.682Z,97.9
2018-10-18T08:48:50.617Z,98.4
2018-10-18T08:49:50.968Z,98.3
2018-10-18T08:50:51.246Z,98.4
2018-10-18T08:51:51.165Z,98.2
2018-10-18T08:52:51.092Z,98.1
2018-10-18T08:53:51.005Z,98.1
2018-10-18T08:54:50.917Z,98.2
2018-10-18T08:55:50.833Z,98.2
2018-10-18T08:56:50.780Z,98.2
2018-10-18T08:57:51.173Z,97.4
2018-10-18T08:58:51.083Z,97.8
2018-10-18T08:59:50.982Z,97.7
2018-10-18T09:00:50.902Z,97.4
2018-10-18T09:01:50.856Z,97.7
2018-10-18T09:02:50.776Z,97.8
2018-10-18T09:03:50.694Z,98
2018-10-18T09:04:50.598Z,98.2
2018-10-18T09:05:50.523Z,98.1
2018-10-18T09:06:50.443Z,97.7
2018-10-18T09:07:50.820Z,96.5
2018-10-18T09:08:50.830Z,96.9
2018-10-18T09:09:50.807Z,97.4
2018-10-18T09:10:50.733Z,97.4
2018-10-18T09:11:50.637Z,97.4
2018-10-18T09:12:50.568Z,97.6
2018-10-18T09:13:50.485Z,97.2
2018-10-18T09:14:50.410Z,97.7
2018-10-18T09:15:50.624Z,97.7
2018-10-18T09:16:50.656Z,97.9
2018-10-18T09:17:51.033Z,97.2
2018-10-18T09:18:50.940Z,97.5
2018-10-18T09:19:50.855Z,97.6
2018-10-18T09:20:50.779Z,97.2
2018-10-18T09:21:50.698Z,97.6
2018-10-18T09:22:50.606Z,97.6
2018-10-18T09:23:51.074Z,97.6
2018-10-18T09:24:51.419Z,97.7
2018-10-18T09:25:51.405Z,97.7
2018-10-18T09:26:51.325Z,97.6
2018-10-18T09:27:51.687Z,97.6
2018-10-18T09:28:51.661Z,97.9
2018-10-18T09:29:51.569Z,97.9
2018-10-18T09:30:51.486Z,97.7
2018-10-18T09:31:54.226Z,97
2018-10-18T09:32:54.146Z,96.5
2018-10-18T09:33:54.072Z,96.4
2018-10-18T09:34:53.990Z,96.8
2018-10-18T09:35:53.924Z,97
2018-10-18T09:36:53.962Z,96.6
2018-10-18T09:57:52.107Z,96
2018-10-18T09:58:52.034Z,96.3
2018-10-18T09:59:51.969Z,96.2
2018-10-18T10:00:51.915Z,96.2
2018-10-18T10:01:51.901Z,96.3
2018-10-18T10:02:51.861Z,96.3
2018-10-18T10:03:51.764Z,96.3
2018-10-18T10:04:51.708Z,96.4
2018-10-18T10:05:51.630Z,96.5
2018-10-18T10:06:51.615Z,96.4
2018-10-18T10:07:52.091Z,96.6
2018-10-18T10:08:52.005Z,97.4
2018-10-18T10:09:51.920Z,97.3
2018-10-18T10:10:51.842Z,97
2018-10-18T10:11:52.285Z,97.1
2018-10-18T10:12:52.745Z,97.1
2018-10-18T10:13:52.686Z,97.5
2018-10-18T10:14:52.616Z,97.5
2018-10-18T10:15:52.540Z,97.1
2018-10-18T10:16:52.468Z,97.3
2018-10-18T10:17:52.967Z,97.1
2018-10-18T10:18:52.967Z,97.5
2018-10-18T10:19:52.936Z,97.5
2018-10-18T10:20:52.852Z,97.4
2018-10-18T10:21:52.787Z,97.2
2018-10-18T10:22:52.727Z,97.3
2018-10-18T10:23:52.635Z,97.4
2018-10-18T10:24:52.672Z,97.1
2018-10-18T10:25:52.642Z,97.1
2018-10-18T10:26:52.545Z,96.9
2018-10-18T10:27:52.923Z,97
2018-10-18T10:28:52.824Z,97.3
2018-10-18T10:29:52.730Z,97.4
2018-10-18T10:30:52.782Z,97.4
2018-10-18T10:31:52.772Z,97.1
2018-10-18T10:32:53.122Z,97
2018-10-18T10:33:53.276Z,96.8
2018-10-18T10:34:53.319Z,96.7
2018-10-18T10:35:53.332Z,97
2018-10-18T10:36:53.394Z,97.2
2018-10-18T10:47:54.334Z,96.4
2018-10-18T10:48:54.477Z,96.6
2018-10-18T10:49:54.521Z,96.6
2018-10-18T10:50:54.741Z,96.3
2018-10-18T10:51:54.792Z,96.4
2018-10-18T10:52:54.812Z,96.5
2018-10-18T10:53:54.927Z,96.5
2018-10-18T10:54:54.907Z,96.1
2018-10-18T10:55:55.071Z,96
2018-10-18T10:56:55.300Z,96.4
2018-10-18T10:57:55.972Z,96
2018-10-18T10:58:56.461Z,96.3
2018-10-18T10:59:56.760Z,96.6
2018-10-18T11:00:56.788Z,96.8
2018-10-18T11:01:56.931Z,96.6
2018-10-18T11:02:57.168Z,96.5
2018-10-18T11:03:57.265Z,96.8
2018-10-18T11:04:57.184Z,96.9
2018-10-18T11:05:57.293Z,96.8
2018-10-18T11:06:57.225Z,96.7
2018-10-18T11:07:57.740Z,96.4
2018-10-18T11:08:58.092Z,96.5
2018-10-18T11:09:58.136Z,96.5
2018-10-18T11:10:58.054Z,96.6
2018-10-18T11:11:58.512Z,96.4
2018-10-18T11:12:58.801Z,96.6
2018-10-18T11:13:58.883Z,96.1
2018-10-18T11:14:59.055Z,96.2
2018-10-18T11:15:59.078Z,96.5
2018-10-18T11:16:59.230Z,96.2
2018-10-18T11:17:59.988Z,96.2
2018-10-18T11:19:00.025Z,96.5
2018-10-18T11:20:00.123Z,96.4
2018-10-18T11:21:00.453Z,96.3
2018-10-18T11:22:00.450Z,96.2
2018-10-18T11:23:00.388Z,96.5
2018-10-18T11:24:00.551Z,96.1
2018-10-18T11:25:00.728Z,96.1
2018-10-18T11:26:00.873Z,96.3
2018-10-18T11:27:01.274Z,96.3
2018-10-18T11:28:02.009Z,96.1
2018-10-18T11:29:01.936Z,96.5
2018-10-18T11:30:02.280Z,96.3
2018-10-18T11:31:02.475Z,96
2018-10-18T11:32:02.707Z,96
2018-10-18T11:33:02.945Z,96.1
2018-10-18T11:34:03.026Z,96.2
2018-10-18T11:35:02.951Z,96.3
2018-10-18T11:36:03.202Z,96.4
2018-10-18T11:37:03.300Z,96.4
2018-10-18T11:38:04.075Z,95.9
2018-10-18T11:39:04.162Z,96.2
2018-10-18T11:40:04.285Z,96.2
2018-10-18T11:41:04.232Z,96.3
2018-10-18T11:42:04.436Z,96.4
2018-10-18T11:43:04.660Z,96.2
2018-10-18T11:44:04.867Z,96
2018-10-18T11:45:05.116Z,96.2
2018-10-18T11:46:05.060Z,96.1
2018-10-18T11:47:04.988Z,96.2
2018-10-18T11:48:05.626Z,95.9
2018-10-18T11:49:05.924Z,96
2018-10-18T11:50:06.297Z,96
2018-10-18T11:51:06.504Z,96
2018-10-18T11:52:06.768Z,95.8
2018-10-18T11:53:07.070Z,95.7
2018-10-18T11:54:07.533Z,95.8
2018-10-18T11:55:07.780Z,96.1
2018-10-18T11:56:08.176Z,96.3
2018-10-18T11:57:08.374Z,96.2
2018-10-18T11:58:08.744Z,95.9
2018-10-18T11:59:09.282Z,96.2
2018-10-18T12:00:09.415Z,96.3
2018-10-18T12:01:09.643Z,96.4
2018-10-18T12:02:10.306Z,96.5
2018-10-18T12:03:10.564Z,96.5
2018-10-18T12:04:10.493Z,96.6
2018-10-18T12:05:10.673Z,96.6
2018-10-18T12:06:10.919Z,96.6
2018-10-18T12:07:10.889Z,96.5
2018-10-18T12:08:11.777Z,96.1
2018-10-18T12:09:11.973Z,96.2
2018-10-18T12:10:11.881Z,96.3
2018-10-18T12:11:12.159Z,96.3
2018-10-18T12:12:12.453Z,96.3
2018-10-18T12:13:12.360Z,96.3
2018-10-18T12:14:12.800Z,96
2018-10-18T12:15:13.049Z,96.1
2018-10-18T12:16:12.961Z,96.2
2018-10-18T12:17:13.463Z,96.1
2018-10-18T12:18:14.310Z,95.7
2018-10-18T12:19:14.901Z,95.9
2018-10-18T12:20:15.800Z,96.1
2018-10-18T12:21:16.162Z,96.2
2018-10-18T12:22:16.102Z,96.3
2018-10-18T12:23:16.653Z,96.3
2018-10-18T12:24:16.992Z,96.3
2018-10-18T12:25:16.895Z,96.3
2018-10-18T12:26:17.413Z,96.2
2018-10-18T12:27:17.762Z,96.2
2018-10-18T12:28:18.124Z,96.1
2018-10-18T12:29:18.582Z,96.2
2018-10-18T12:30:18.986Z,96.3
2018-10-18T12:31:18.907Z,96.3
2018-10-18T12:32:18.841Z,96.2
2018-10-18T12:33:18.774Z,96.3
2018-10-18T12:34:18.692Z,96.4
2018-10-18T12:35:19.169Z,96.3
2018-10-18T12:36:19.147Z,96.2
2018-10-18T12:37:19.057Z,96.2
2018-10-18T12:38:19.532Z,96
2018-10-18T12:39:19.502Z,96.2
2018-10-18T12:40:19.930Z,96
2018-10-18T12:41:21.406Z,96.1
2018-10-18T12:42:22.240Z,96.1
2018-10-18T12:43:22.168Z,96.2
2018-10-18T12:44:22.098Z,96.1
2018-10-18T12:45:22.030Z,96.2
2018-10-18T12:46:21.944Z,96
2018-10-18T12:47:21.846Z,95.9
2018-10-18T12:48:23.195Z,95.8
2018-10-18T12:49:23.693Z,96
2018-10-18T12:50:23.612Z,96.1
2018-10-18T12:51:23.537Z,96.2
2018-10-18T12:52:23.445Z,96.1
2018-10-18T12:53:23.376Z,96.3
2018-10-18T12:54:23.477Z,96.3
2018-10-18T12:55:23.500Z,96.3
2018-10-18T12:56:23.427Z,96.4
2018-10-18T12:57:23.339Z,96.5
2018-10-18T12:58:23.717Z,96.3
2018-10-18T12:59:23.639Z,96.5
2018-10-18T13:00:23.576Z,96.6
2018-10-18T13:01:23.493Z,96.5
2018-10-18T13:02:23.926Z,96.5
2018-10-18T13:03:24.015Z,96.3
2018-10-18T13:04:23.963Z,96.3
2018-10-18T13:05:23.870Z,96.2
2018-10-18T13:06:23.779Z,96.2
2018-10-18T13:07:23.708Z,96.3
2018-10-18T13:18:23.620Z,95.6
2018-10-18T13:19:23.537Z,96
2018-10-18T13:20:23.463Z,96
2018-10-18T13:21:23.390Z,96
2018-10-18T13:22:23.314Z,96
2018-10-18T13:23:23.231Z,95.9
2018-10-18T13:24:23.149Z,95.9
2018-10-18T13:25:23.666Z,95.8
2018-10-18T13:26:23.877Z,95.7
2018-10-18T13:27:23.780Z,95.7
2018-10-18T13:28:24.138Z,95.5
2018-10-18T13:29:24.056Z,95.8
2018-10-18T13:30:23.986Z,95.8
2018-10-18T13:31:23.899Z,95.9
2018-10-18T13:32:23.839Z,95.9
2018-10-18T13:33:23.756Z,95.9
2018-10-18T13:34:23.680Z,95.9
2018-10-18T13:35:23.588Z,95.9
2018-10-18T13:36:23.512Z,96
2018-10-18T13:37:23.416Z,96.4
2018-10-18T13:38:23.997Z,95.8
2018-10-18T13:39:23.914Z,96
2018-10-18T13:40:23.849Z,95.8
2018-10-18T13:41:23.765Z,95.9
2018-10-18T13:42:23.683Z,95.9
2018-10-18T13:43:23.625Z,96
2018-10-18T13:44:23.555Z,95.9
2018-10-18T13:45:23.484Z,96
2018-10-18T13:46:23.740Z,96
2018-10-18T13:47:23.883Z,95.9
2018-10-18T13:48:24.504Z,95.8
2018-10-18T13:49:24.436Z,96.1
2018-10-18T13:50:24.337Z,96.1
2018-10-18T13:51:24.244Z,96.1
2018-10-18T13:52:24.155Z,96.2
2018-10-18T13:53:24.077Z,96.1
2018-10-18T13:54:24.034Z,96.2
2018-10-18T13:55:24.129Z,96.2
2018-10-18T13:56:24.122Z,96.2
2018-10-18T13:57:24.033Z,95.9
2018-10-18T14:08:24.648Z,95
2018-10-18T14:09:24.984Z,95.3
2018-10-18T14:10:24.961Z,95.5
2018-10-18T14:11:24.874Z,95.7
2018-10-18T14:12:24.806Z,95.5
2018-10-18T14:13:24.728Z,95.4
2018-10-18T14:14:24.668Z,95.5
2018-10-18T14:15:24.628Z,95.5
2018-10-18T14:16:24.531Z,95.5
2018-10-18T14:17:25.894Z,95.3
2018-10-18T14:18:28.139Z,95.2
2018-10-18T14:19:28.066Z,95.5
2018-10-18T14:20:28.033Z,95.4
2018-10-18T14:21:27.970Z,95.4
2018-10-18T14:22:27.896Z,95.6
2018-10-18T14:23:27.802Z,95.4
2018-10-18T14:24:27.732Z,95.7
2018-10-18T14:25:27.639Z,95.6
2018-10-18T14:26:27.616Z,95.6
2018-10-18T14:27:27.523Z,95.6
2018-10-18T14:28:27.905Z,95.5
2018-10-18T14:29:28.846Z,95.7
2018-10-18T14:30:29.363Z,95.3
2018-10-18T14:31:31.507Z,95.4
2018-10-18T14:32:31.459Z,95.4
2018-10-18T14:33:31.392Z,95.4
2018-10-18T14:34:35.893Z,95.5
2018-10-18T14:35:35.822Z,95.6
2018-10-18T14:36:38.443Z,95.6
2018-10-18T14:37:38.590Z,95.6
2018-10-18T14:58:40.634Z,94
2018-10-18T14:59:40.786Z,94.3
2018-10-18T15:00:40.700Z,94.4
2018-10-18T15:01:40.632Z,94.5
2018-10-18T15:02:40.559Z,94.6
2018-10-18T15:03:40.481Z,94.7
2018-10-18T15:04:41.041Z,94.9
2018-10-18T15:05:41.496Z,95
2018-10-18T15:06:41.406Z,95.1
2018-10-18T15:07:41.351Z,95.3
2018-10-18T15:08:42.312Z,94.9
2018-10-18T15:09:42.235Z,95.2
2018-10-18T15:10:42.160Z,95.2
2018-10-18T15:11:42.093Z,95.3
2018-10-18T15:12:42.608Z,95.6
2018-10-18T15:13:42.888Z,95.7
2018-10-18T15:14:42.808Z,95.8
2018-10-18T15:15:42.723Z,95.8
2018-10-18T15:16:42.642Z,96
2018-10-18T15:17:42.567Z,96
2018-10-18T15:18:42.983Z,95.9
2018-10-18T15:19:42.897Z,96.2
2018-10-18T15:20:42.815Z,96.2
2018-10-18T15:21:42.725Z,96.2
2018-10-18T15:22:42.631Z,96.2
2018-10-18T15:23:42.593Z,96.3
2018-10-18T15:24:42.527Z,96.3
2018-10-18T15:25:43.810Z,96.4
2018-10-18T15:26:46.053Z,96.4
2018-10-18T15:27:48.105Z,96.4
2018-10-18T15:28:49.893Z,96.1
2018-10-18T15:29:49.804Z,96.4
2018-10-18T15:30:49.724Z,96.4
2018-10-18T15:31:49.996Z,96.8
2018-10-18T15:32:50.072Z,96.4
2018-10-18T15:33:50.004Z,96.4
2018-10-18T15:34:49.931Z,96.5
2018-10-18T15:35:49.854Z,96.5
2018-10-18T15:36:49.796Z,96.5
2018-10-18T15:37:51.010Z,96.6
2018-10-18T15:38:54.650Z,96.4
2018-10-18T15:39:55.567Z,96.7
2018-10-18T15:40:55.637Z,96.7
2018-10-18T15:41:55.650Z,96.7
2018-10-18T15:42:55.569Z,96.7
2018-10-18T15:43:55.480Z,96.8
2018-10-18T15:44:55.568Z,96.8
2018-10-18T15:45:55.527Z,96.8
2018-10-18T15:46:55.672Z,96.8
2018-10-18T15:47:55.719Z,96.9
2018-10-18T16:09:31.202Z,96.6
2018-10-18T16:10:31.128Z,96.9
2018-10-18T16:11:31.376Z,97
2018-10-18T16:12:31.346Z,97.1
2018-10-18T16:13:31.479Z,97.2
2018-10-18T16:14:31.669Z,97.3
2018-10-18T16:15:31.753Z,97.2
2018-10-18T16:16:31.663Z,97.4
2018-10-18T16:17:31.665Z,97.4
2018-10-18T16:18:31.695Z,97.5
2018-10-18T16:19:32.043Z,97.4
2018-10-18T16:20:31.962Z,97.5
2018-10-18T16:21:31.878Z,97.5
2018-10-18T16:22:31.822Z,97.6